Terminal Aerodrome Forecast
Issued by NWS

Home | Current Version | Previous Version | Text Only | Print | Product List | Glossary On
Versions: 1 2 3 4 5 6 7 8 9 10 11 12 13 14 15 16 17 18 19 20 21 22 23
000
FTUS43 KDLH 290538
TAFHIB
TAF
KHIB 290538Z 2906/3006 21014KT P6SM SCT060 WS010/25040KT
     FM291200 23014G20KT P6SM SCT040
     FM291400 26018G33KT P6SM SCT025 OVC040
     FM300200 29010KT P6SM FEW050=

USA.gov is the U.S. government's official web portal to all federal, state and local government web resources and services.